createdAt,value
2022-08-24T00:02:01.493Z,17.07
2022-08-24T00:04:28.418Z,16.95
2022-08-24T00:06:58.846Z,17.00
2022-08-24T00:09:25.342Z,17.06
2022-08-24T00:11:51.943Z,16.90
2022-08-24T00:14:18.486Z,16.91
2022-08-24T00:16:45.280Z,16.79
2022-08-24T00:19:12.161Z,16.73
2022-08-24T00:21:38.638Z,16.88
2022-08-24T00:24:05.557Z,17.49
2022-08-24T00:26:32.086Z,17.17
2022-08-24T00:28:59.180Z,17.08
2022-08-24T00:31:26.040Z,16.97
2022-08-24T00:33:52.755Z,16.86
2022-08-24T00:36:21.565Z,16.64
2022-08-24T00:38:48.430Z,16.82
2022-08-24T00:41:15.550Z,16.58
2022-08-24T00:43:51.636Z,16.41
2022-08-24T00:46:25.501Z,16.23
2022-08-24T00:48:56.261Z,16.45
2022-08-24T00:51:25.932Z,16.59
2022-08-24T00:53:54.982Z,16.23
2022-08-24T00:56:24.458Z,16.16
2022-08-24T00:58:56.958Z,16.23
2022-08-24T01:01:23.796Z,16.25
2022-08-24T01:03:54.792Z,15.94
2022-08-24T01:06:23.242Z,16.13
2022-08-24T01:08:56.403Z,15.89
2022-08-24T01:11:25.053Z,16.07
2022-08-24T01:13:53.278Z,16.83
2022-08-24T01:16:40.868Z,16.28
2022-08-24T01:19:32.043Z,16.11
2022-08-24T01:22:06.760Z,15.99
2022-08-24T01:24:35.427Z,15.79
2022-08-24T01:27:02.491Z,15.79
2022-08-24T01:29:31.575Z,15.85
2022-08-24T01:31:58.462Z,15.76
2022-08-24T01:34:25.533Z,15.73
2022-08-24T01:36:55.954Z,15.64
2022-08-24T01:39:25.190Z,15.94
2022-08-24T01:41:52.532Z,15.68
2022-08-24T01:44:20.814Z,15.42
2022-08-24T01:46:48.798Z,15.51
2022-08-24T01:49:16.162Z,15.61
2022-08-24T01:51:43.255Z,15.53
2022-08-24T01:54:09.891Z,15.93
2022-08-24T01:56:36.648Z,15.60
2022-08-24T01:59:05.628Z,15.56
2022-08-24T02:01:34.332Z,15.47
2022-08-24T02:04:02.513Z,15.43
2022-08-24T02:06:29.579Z,15.36
2022-08-24T02:08:56.162Z,15.41
2022-08-24T02:11:22.809Z,15.18
2022-08-24T02:13:49.377Z,15.40
2022-08-24T02:16:16.882Z,15.04
2022-08-24T02:18:43.534Z,15.14
2022-08-24T02:21:11.511Z,15.35
2022-08-24T02:23:38.974Z,15.48
2022-08-24T02:26:06.749Z,15.59
2022-08-24T02:28:33.886Z,15.33
2022-08-24T02:31:01.268Z,15.62
2022-08-24T02:33:29.991Z,15.69
2022-08-24T02:35:57.024Z,15.68
2022-08-24T02:38:23.985Z,15.48
2022-08-24T02:40:50.580Z,15.55
2022-08-24T02:43:17.538Z,15.91
2022-08-24T02:45:50.257Z,15.74
2022-08-24T02:48:18.368Z,15.43
2022-08-24T02:50:47.162Z,15.45
2022-08-24T02:53:14.555Z,15.35
2022-08-24T02:55:41.933Z,15.02
2022-08-24T02:58:09.627Z,14.77
2022-08-24T03:00:36.754Z,15.15
2022-08-24T03:03:03.533Z,15.38
2022-08-24T03:05:30.365Z,15.65
2022-08-24T03:07:57.498Z,15.52
2022-08-24T03:10:24.807Z,15.33
2022-08-24T03:12:51.625Z,15.63
2022-08-24T03:15:22.399Z,15.84
2022-08-24T03:17:50.054Z,15.58
2022-08-24T03:20:18.272Z,15.50
2022-08-24T03:22:46.378Z,15.86
2022-08-24T03:25:13.851Z,15.42
2022-08-24T03:27:40.549Z,15.24
2022-08-24T03:30:07.995Z,15.34
2022-08-24T03:32:34.746Z,15.18
2022-08-24T03:35:02.306Z,15.27
2022-08-24T03:37:29.163Z,15.19
2022-08-24T03:39:55.670Z,15.27
2022-08-24T03:42:22.202Z,15.11
2022-08-24T03:44:48.698Z,15.19
2022-08-24T03:47:16.297Z,15.05
2022-08-24T03:49:42.982Z,15.11
2022-08-24T03:52:09.547Z,15.25
2022-08-24T03:54:36.356Z,14.95
2022-08-24T03:57:02.919Z,15.06
2022-08-24T03:59:30.069Z,15.07
2022-08-24T04:01:58.235Z,15.08
2022-08-24T04:04:26.430Z,15.82
2022-08-24T04:06:53.015Z,15.38
2022-08-24T04:09:20.090Z,15.19
2022-08-24T04:11:47.761Z,15.23
2022-08-24T04:14:26.740Z,14.93
2022-08-24T04:16:59.054Z,14.62
2022-08-24T04:19:33.198Z,14.58
2022-08-24T04:21:59.869Z,14.63
2022-08-24T04:24:26.822Z,14.85
2022-08-24T04:26:53.656Z,15.10
2022-08-24T04:29:20.894Z,15.15
2022-08-24T04:31:51.529Z,15.27
2022-08-24T04:34:18.603Z,15.35
2022-08-24T04:36:45.373Z,15.09
2022-08-24T04:39:12.942Z,15.03
2022-08-24T04:41:59.935Z,15.11
2022-08-24T04:44:32.388Z,15.17
2022-08-24T04:47:01.363Z,15.27
2022-08-24T04:49:28.238Z,15.46
2022-08-24T04:51:56.003Z,15.50
2022-08-24T04:54:24.728Z,15.60
2022-08-24T04:57:04.217Z,15.56
2022-08-24T04:59:30.734Z,15.55
2022-08-24T05:01:57.470Z,15.55
2022-08-24T05:04:24.373Z,15.59
2022-08-24T05:06:53.427Z,15.58
2022-08-24T05:09:21.882Z,15.48
2022-08-24T05:11:49.607Z,15.64
2022-08-24T05:14:22.210Z,15.49
2022-08-24T05:16:53.108Z,15.65
2022-08-24T05:19:21.757Z,15.75
2022-08-24T05:21:48.255Z,15.78
2022-08-24T05:24:15.044Z,15.77
2022-08-24T05:26:41.626Z,15.77
2022-08-24T05:29:09.903Z,16.03
2022-08-24T05:31:48.996Z,16.37
2022-08-24T05:34:16.515Z,16.22
2022-08-24T05:36:43.510Z,16.32
2022-08-24T05:39:19.331Z,16.51
2022-08-24T05:41:52.850Z,16.69
2022-08-24T05:44:29.111Z,16.92
2022-08-24T05:46:59.811Z,16.77
2022-08-24T05:49:27.193Z,16.80
2022-08-24T05:51:54.096Z,16.78
2022-08-24T05:54:20.926Z,17.08
2022-08-24T05:57:01.922Z,17.49
2022-08-24T05:59:31.408Z,17.66
2022-08-24T06:02:01.541Z,17.92
2022-08-24T06:04:29.145Z,18.20
2022-08-24T06:06:55.686Z,18.14
2022-08-24T06:09:22.226Z,18.08
2022-08-24T06:11:49.387Z,18.25
2022-08-24T06:14:18.596Z,18.41
2022-08-24T06:16:57.527Z,18.97
2022-08-24T06:19:24.683Z,18.96
2022-08-24T06:21:52.530Z,19.05
2022-08-24T06:24:40.194Z,19.07
2022-08-24T06:27:23.989Z,19.69
2022-08-24T06:30:01.590Z,19.32
2022-08-24T06:32:46.806Z,19.72
2022-08-24T06:35:31.387Z,19.69
2022-08-24T06:37:57.982Z,20.29
2022-08-24T06:40:25.947Z,20.26
2022-08-24T06:42:52.880Z,20.88
2022-08-24T06:45:34.222Z,21.15
2022-08-24T06:48:01.370Z,21.46
2022-08-24T06:50:28.402Z,21.53
2022-08-24T06:52:56.066Z,21.46
2022-08-24T06:55:24.413Z,21.94
2022-08-24T06:57:52.668Z,22.33
2022-08-24T07:00:20.039Z,21.73
2022-08-24T07:02:47.363Z,22.08
2022-08-24T07:05:19.160Z,22.37
2022-08-24T07:08:06.519Z,22.41
2022-08-24T07:10:34.391Z,22.76
2022-08-24T07:13:01.339Z,23.19
2022-08-24T07:15:28.027Z,23.65
2022-08-24T07:18:09.869Z,23.46
2022-08-24T07:20:39.363Z,23.80
2022-08-24T07:23:17.981Z,23.27
2022-08-24T07:25:48.899Z,23.83
2022-08-24T07:28:19.172Z,25.33
2022-08-24T07:30:59.766Z,25.03
2022-08-24T07:33:27.354Z,24.58
2022-08-24T07:35:55.112Z,24.89
2022-08-24T07:38:23.085Z,25.01
2022-08-24T07:41:14.211Z,25.15
2022-08-24T07:43:36.279Z,25.70
2022-08-24T07:46:08.188Z,25.62
2022-08-24T07:48:36.382Z,25.87
2022-08-24T07:51:07.309Z,26.17
2022-08-24T07:53:52.529Z,26.08
2022-08-24T07:56:22.582Z,27.22
2022-08-24T07:58:49.622Z,27.68
2022-08-24T08:01:22.424Z,26.21
2022-08-24T08:03:50.120Z,26.83
2022-08-24T08:06:17.061Z,26.15
2022-08-24T08:08:45.645Z,26.23
2022-08-24T08:11:12.254Z,26.52
2022-08-24T08:16:11.752Z,29.94
2022-08-24T08:18:38.554Z,30.28
2022-08-24T08:21:29.638Z,29.45
2022-08-24T08:24:15.267Z,29.45
2022-08-24T08:26:43.526Z,29.59
2022-08-24T08:29:15.875Z,29.52
2022-08-24T08:31:42.514Z,30.86
2022-08-24T08:34:09.997Z,31.12
2022-08-24T08:36:41.619Z,31.79
2022-08-24T08:39:10.253Z,30.68
2022-08-24T08:41:43.710Z,31.04
2022-08-24T08:44:32.765Z,31.27
2022-08-24T08:47:02.086Z,29.25
2022-08-24T08:49:59.078Z,28.78
2022-08-24T08:52:33.434Z,28.97
2022-08-24T08:55:23.677Z,28.77
2022-08-24T08:58:11.714Z,29.21
2022-08-24T09:00:48.828Z,30.60
2022-08-24T09:03:17.525Z,30.44
2022-08-24T09:06:18.178Z,30.36
2022-08-24T09:09:02.334Z,31.31
2022-08-24T09:11:41.552Z,31.09
2022-08-24T09:14:29.339Z,31.27
2022-08-24T09:16:55.879Z,30.08
2022-08-24T09:19:31.650Z,31.34
2022-08-24T09:22:08.197Z,30.47
2022-08-24T09:25:00.043Z,32.89
2022-08-24T09:27:35.953Z,32.21
2022-08-24T09:30:09.719Z,32.29
2022-08-24T09:32:36.514Z,33.13
2022-08-24T09:35:06.174Z,29.25
2022-08-24T09:37:32.718Z,30.86
2022-08-24T09:40:02.554Z,30.44
2022-08-24T09:42:52.442Z,30.13
2022-08-24T09:45:36.078Z,31.42
2022-08-24T09:48:15.771Z,32.82
2022-08-24T09:50:42.586Z,32.27
2022-08-24T09:53:27.418Z,32.63
2022-08-24T09:56:12.134Z,32.93
2022-08-24T09:59:17.048Z,32.67
2022-08-24T10:01:51.683Z,32.67
2022-08-24T10:04:32.199Z,31.66
2022-08-24T10:07:14.797Z,32.15
2022-08-24T10:09:50.490Z,32.72
2022-08-24T10:12:56.140Z,31.44
2022-08-24T10:15:25.810Z,33.47
2022-08-24T10:17:58.263Z,33.39
2022-08-24T10:20:47.192Z,32.72
2022-08-24T10:23:25.867Z,33.71
2022-08-24T10:26:25.524Z,34.26
2022-08-24T10:28:58.170Z,33.53
2022-08-24T10:31:34.242Z,32.54
2022-08-24T10:34:06.970Z,33.60
2022-08-24T10:36:33.467Z,35.26
2022-08-24T10:39:37.538Z,35.92
2022-08-24T10:42:47.574Z,34.89
2022-08-24T10:45:32.994Z,31.14
2022-08-24T10:48:18.324Z,31.37
2022-08-24T10:50:56.678Z,32.64
2022-08-24T10:53:30.566Z,32.17
2022-08-24T10:56:04.761Z,34.59
2022-08-24T10:58:46.493Z,32.19
2022-08-24T11:01:22.989Z,33.07
2022-08-24T11:03:49.622Z,34.27
2022-08-24T11:06:17.427Z,33.83
2022-08-24T11:08:58.517Z,33.79
2022-08-24T11:11:30.301Z,31.95
2022-08-24T11:14:00.358Z,31.64
2022-08-24T11:16:35.838Z,31.51
2022-08-24T11:19:05.152Z,33.66
2022-08-24T11:21:33.890Z,33.69
2022-08-24T11:24:04.555Z,34.09
2022-08-24T11:26:31.450Z,33.67
2022-08-24T11:29:00.330Z,32.98
2022-08-24T11:31:35.577Z,32.69
2022-08-24T11:34:22.916Z,33.87
2022-08-24T11:36:49.515Z,33.89
2022-08-24T11:39:21.930Z,33.81
2022-08-24T11:41:51.205Z,33.19
2022-08-24T11:44:27.505Z,32.93
2022-08-24T11:47:00.145Z,33.96
2022-08-24T11:49:35.910Z,34.96
2022-08-24T11:52:17.975Z,34.77
2022-08-24T11:54:50.943Z,34.47
2022-08-24T11:57:39.129Z,33.12
2022-08-24T12:00:18.723Z,33.35
2022-08-24T12:03:04.420Z,32.48
2022-08-24T12:05:43.675Z,32.65
2022-08-24T12:08:27.280Z,32.37
2022-08-24T12:10:59.904Z,31.19
2022-08-24T12:13:26.413Z,31.12
2022-08-24T12:16:07.734Z,32.49
2022-08-24T12:18:47.685Z,32.29
2022-08-24T12:21:17.330Z,32.47
2022-08-24T12:23:46.022Z,31.20
2022-08-24T12:26:18.607Z,29.97
2022-08-24T12:28:54.222Z,29.72
2022-08-24T12:31:34.682Z,30.02
2022-08-24T12:34:03.649Z,31.36
2022-08-24T12:36:44.898Z,31.87
2022-08-24T12:39:18.051Z,32.10
2022-08-24T12:42:03.509Z,31.59
2022-08-24T12:44:39.123Z,31.78
2022-08-24T12:47:05.765Z,32.93
2022-08-24T12:49:43.678Z,33.08
2022-08-24T12:52:19.224Z,33.39
2022-08-24T12:54:57.828Z,34.14
2022-08-24T12:57:25.267Z,34.32
2022-08-24T12:59:57.790Z,33.81
2022-08-24T13:02:26.480Z,33.25
2022-08-24T13:04:53.656Z,33.19
2022-08-24T13:07:23.316Z,33.37
2022-08-24T13:09:53.236Z,33.56
2022-08-24T13:12:38.183Z,33.40
2022-08-24T13:15:20.073Z,32.31
2022-08-24T13:17:47.979Z,32.11
2022-08-24T13:20:18.154Z,33.01
2022-08-24T13:22:47.757Z,31.44
2022-08-24T13:25:25.505Z,32.13
2022-08-24T13:28:05.185Z,31.49
2022-08-24T13:30:35.428Z,33.06
2022-08-24T13:33:04.163Z,31.56
2022-08-24T13:35:39.857Z,33.29
2022-08-24T13:38:25.615Z,31.72
2022-08-24T13:40:56.313Z,31.86
2022-08-24T13:43:29.979Z,32.40
2022-08-24T13:46:13.116Z,31.99
2022-08-24T13:48:52.718Z,31.35
2022-08-24T13:51:38.080Z,31.14
2022-08-24T13:54:20.465Z,30.94
2022-08-24T13:57:12.013Z,30.58
2022-08-24T13:59:39.969Z,30.21
2022-08-24T14:02:15.972Z,30.48
2022-08-24T14:04:42.468Z,30.98
2022-08-24T14:07:08.910Z,31.23
2022-08-24T14:09:44.831Z,31.13
2022-08-24T14:12:11.353Z,31.25
2022-08-24T14:14:53.156Z,30.47
2022-08-24T14:17:47.377Z,30.63
2022-08-24T14:20:14.331Z,30.44
2022-08-24T14:23:07.569Z,31.34
2022-08-24T14:25:36.209Z,30.86
2022-08-24T14:28:32.283Z,30.46
2022-08-24T14:31:15.606Z,30.43
2022-08-24T14:33:59.963Z,30.05
2022-08-24T14:36:49.298Z,29.23
2022-08-24T14:39:24.113Z,28.97
2022-08-24T14:41:54.311Z,29.52
2022-08-24T14:44:21.014Z,29.15
2022-08-24T14:46:59.922Z,28.54
2022-08-24T14:49:35.764Z,28.22
2022-08-24T14:52:13.618Z,27.96
2022-08-24T14:54:53.027Z,28.00
2022-08-24T14:57:34.706Z,28.21
2022-08-24T15:00:08.109Z,28.31
2022-08-24T15:02:40.900Z,28.65
2022-08-24T15:05:10.481Z,28.70
2022-08-24T15:07:37.076Z,28.41
2022-08-24T15:10:11.398Z,28.84
2022-08-24T15:12:42.633Z,28.33
2022-08-24T15:15:44.858Z,27.16
2022-08-24T15:18:11.603Z,27.30
2022-08-24T15:20:49.661Z,26.26
2022-08-24T15:23:22.303Z,25.26
2022-08-24T15:25:52.621Z,24.83
2022-08-24T15:28:32.103Z,24.77
2022-08-24T15:31:00.934Z,24.63
2022-08-24T15:33:28.883Z,24.81
2022-08-24T15:36:10.350Z,24.89
2022-08-24T15:38:38.708Z,24.86
2022-08-24T15:41:08.476Z,24.67
2022-08-24T15:43:38.049Z,24.80
2022-08-24T15:46:04.931Z,25.04
2022-08-24T15:48:31.985Z,25.20
2022-08-24T15:51:00.918Z,25.40
2022-08-24T15:53:30.788Z,25.22
2022-08-24T15:56:00.097Z,25.37
2022-08-24T15:58:30.503Z,25.50
2022-08-24T16:01:28.069Z,25.86
2022-08-24T16:03:56.449Z,25.63
2022-08-24T16:06:23.048Z,25.37
2022-08-24T16:09:01.394Z,24.29
2022-08-24T16:11:30.075Z,24.38
2022-08-24T16:13:56.719Z,24.61
2022-08-24T16:16:35.137Z,24.48
2022-08-24T16:19:02.193Z,23.96
2022-08-24T16:21:38.294Z,23.44
2022-08-24T16:24:13.306Z,23.48
2022-08-24T16:26:45.793Z,23.29
2022-08-24T16:29:30.882Z,23.10
2022-08-24T16:32:21.538Z,22.95
2022-08-24T16:35:08.356Z,22.84
2022-08-24T16:37:35.200Z,22.48
2022-08-24T16:40:01.776Z,22.90
2022-08-24T16:42:29.514Z,23.41
2022-08-24T16:44:56.458Z,23.28
2022-08-24T16:47:23.349Z,23.57
2022-08-24T16:49:50.022Z,23.28
2022-08-24T16:52:16.635Z,23.17
2022-08-24T16:54:43.778Z,22.88
2022-08-24T16:57:13.570Z,22.94
2022-08-24T16:59:41.193Z,22.67
2022-08-24T17:02:07.740Z,22.44
2022-08-24T17:04:36.435Z,22.49
2022-08-24T17:07:04.263Z,22.20
2022-08-24T17:09:31.277Z,22.18
2022-08-24T17:11:57.790Z,21.65
2022-08-24T17:14:24.375Z,21.60
2022-08-24T17:16:51.014Z,21.44
2022-08-24T17:19:18.438Z,21.32
2022-08-24T17:21:44.991Z,21.36
2022-08-24T17:24:11.896Z,21.25
2022-08-24T17:26:44.974Z,21.52
2022-08-24T17:29:18.405Z,21.39
2022-08-24T17:31:47.195Z,21.42
2022-08-24T17:34:13.833Z,21.42
2022-08-24T17:36:41.371Z,21.63
2022-08-24T17:39:09.822Z,22.48
2022-08-24T17:41:36.322Z,21.87
2022-08-24T17:44:02.980Z,21.81
2022-08-24T17:46:30.542Z,21.32
2022-08-24T17:48:57.783Z,21.29
2022-08-24T17:51:24.366Z,21.13
2022-08-24T17:53:50.882Z,21.23
2022-08-24T17:56:18.294Z,21.23
2022-08-24T17:59:03.860Z,21.02
2022-08-24T18:01:30.838Z,21.06
2022-08-24T18:03:57.485Z,21.03
2022-08-24T18:06:25.935Z,21.20
2022-08-24T18:08:52.724Z,21.09
2022-08-24T18:11:21.683Z,21.27
2022-08-24T18:13:51.874Z,21.44
2022-08-24T18:16:20.822Z,21.78
2022-08-24T18:18:49.810Z,21.40
2022-08-24T18:21:16.286Z,21.53
2022-08-24T18:23:43.769Z,21.29
2022-08-24T18:26:11.157Z,21.25
2022-08-24T18:28:37.696Z,21.30
2022-08-24T18:31:04.531Z,21.17
2022-08-24T18:33:31.314Z,21.24
2022-08-24T18:35:58.155Z,21.24
2022-08-24T18:38:26.781Z,20.97
2022-08-24T18:40:53.477Z,20.94
2022-08-24T18:43:22.312Z,21.02
2022-08-24T18:45:48.984Z,20.79
2022-08-24T18:48:15.787Z,20.83
2022-08-24T18:50:42.399Z,20.79
2022-08-24T18:53:09.042Z,20.80
2022-08-24T18:55:37.668Z,20.75
2022-08-24T18:58:05.310Z,20.82
2022-08-24T19:00:31.876Z,20.79
2022-08-24T19:03:01.222Z,20.97
2022-08-24T19:05:27.929Z,21.62
2022-08-24T19:07:54.739Z,21.32
2022-08-24T19:10:23.666Z,22.21
2022-08-24T19:12:52.956Z,21.10
2022-08-24T19:15:35.784Z,20.96
2022-08-24T19:18:06.651Z,20.59
2022-08-24T19:20:33.837Z,20.69
2022-08-24T19:23:04.971Z,20.75
2022-08-24T19:25:31.986Z,20.60
2022-08-24T19:27:58.650Z,20.42
2022-08-24T19:30:27.908Z,20.48
2022-08-24T19:32:57.950Z,20.44
2022-08-24T19:35:24.455Z,20.43
2022-08-24T19:37:51.007Z,20.32
2022-08-24T19:40:18.093Z,20.11
2022-08-24T19:42:49.584Z,20.25
2022-08-24T19:45:37.389Z,20.35
2022-08-24T19:48:04.634Z,20.18
2022-08-24T19:50:35.583Z,20.30
2022-08-24T19:53:02.796Z,19.93
2022-08-24T19:55:29.723Z,19.81
2022-08-24T19:58:11.321Z,19.80
2022-08-24T20:00:42.305Z,19.99
2022-08-24T20:03:14.952Z,20.02
2022-08-24T20:05:41.893Z,20.07
2022-08-24T20:08:08.785Z,20.29
2022-08-24T20:10:35.310Z,20.18
2022-08-24T20:13:01.912Z,20.09
2022-08-24T20:15:28.554Z,19.96
2022-08-24T20:17:56.497Z,19.94
2022-08-24T20:20:23.644Z,19.78
2022-08-24T20:22:50.945Z,19.73
2022-08-24T20:25:18.551Z,19.68
2022-08-24T20:27:47.995Z,19.76
2022-08-24T20:30:15.299Z,19.72
2022-08-24T20:32:42.049Z,19.97
2022-08-24T20:35:09.304Z,19.96
2022-08-24T20:37:35.837Z,20.12
2022-08-24T20:40:03.133Z,20.02
2022-08-24T20:42:31.608Z,19.85
2022-08-24T20:44:59.657Z,19.96
2022-08-24T20:47:26.573Z,19.79
2022-08-24T20:49:53.146Z,19.87
2022-08-24T20:52:19.986Z,19.72
2022-08-24T20:54:46.564Z,19.66
2022-08-24T20:57:15.597Z,19.44
2022-08-24T20:59:42.186Z,19.48
2022-08-24T21:02:08.793Z,19.73
2022-08-24T21:04:35.334Z,19.58
2022-08-24T21:07:02.025Z,19.59
2022-08-24T21:09:28.553Z,19.56
2022-08-24T21:11:55.050Z,19.70
2022-08-24T21:14:21.647Z,19.66
2022-08-24T21:16:48.271Z,19.54
2022-08-24T21:19:17.495Z,19.63
2022-08-24T21:21:45.119Z,19.71
2022-08-24T21:24:11.669Z,19.48
2022-08-24T21:26:38.821Z,19.53
2022-08-24T21:29:06.651Z,19.63
2022-08-24T21:31:33.557Z,19.77
2022-08-24T21:34:18.471Z,19.53
2022-08-24T21:36:46.721Z,19.56
2022-08-24T21:39:15.589Z,19.57
2022-08-24T21:41:42.688Z,19.50
2022-08-24T21:44:09.207Z,19.58
2022-08-24T21:46:37.449Z,19.53
2022-08-24T21:49:04.484Z,19.70
2022-08-24T21:51:31.257Z,19.78
2022-08-24T21:53:59.868Z,19.72
2022-08-24T21:56:28.979Z,19.53
2022-08-24T21:58:55.541Z,19.68
2022-08-24T22:01:22.114Z,19.61
2022-08-24T22:03:48.742Z,19.76
2022-08-24T22:06:15.270Z,19.95
2022-08-24T22:08:42.839Z,19.91
2022-08-24T22:11:10.495Z,19.79
2022-08-24T22:13:38.242Z,19.89
2022-08-24T22:16:05.914Z,19.96
2022-08-24T22:18:32.806Z,19.83
2022-08-24T22:20:59.958Z,19.78
2022-08-24T22:23:26.482Z,19.71
2022-08-24T22:25:53.590Z,19.74
2022-08-24T22:28:20.556Z,19.81
2022-08-24T22:30:48.867Z,19.76
2022-08-24T22:33:15.904Z,19.77
2022-08-24T22:35:44.725Z,19.76
2022-08-24T22:38:12.434Z,19.51
2022-08-24T22:40:39.092Z,19.18
2022-08-24T22:43:05.889Z,19.31
2022-08-24T22:45:32.536Z,19.22
2022-08-24T22:47:59.058Z,19.22
2022-08-24T22:50:25.621Z,19.28
2022-08-24T22:52:53.194Z,19.31
2022-08-24T22:55:19.923Z,19.46
2022-08-24T22:57:51.357Z,19.37
2022-08-24T23:00:18.246Z,19.42
2022-08-24T23:02:44.802Z,19.21
2022-08-24T23:05:11.349Z,19.20
2022-08-24T23:07:37.847Z,19.45
2022-08-24T23:10:05.785Z,19.36
2022-08-24T23:12:33.043Z,19.22
2022-08-24T23:14:59.871Z,19.17
2022-08-24T23:17:26.432Z,19.34
2022-08-24T23:20:04.959Z,19.22
2022-08-24T23:22:34.553Z,19.19
2022-08-24T23:25:01.559Z,18.95
2022-08-24T23:27:31.863Z,19.79
2022-08-24T23:30:05.440Z,19.42
2022-08-24T23:32:32.264Z,19.23
2022-08-24T23:34:58.980Z,19.00
2022-08-24T23:37:25.549Z,18.93
2022-08-24T23:39:52.129Z,19.04
2022-08-24T23:42:18.762Z,18.87
2022-08-24T23:44:45.445Z,18.88
2022-08-24T23:47:11.970Z,18.72
2022-08-24T23:49:39.759Z,18.64
2022-08-24T23:52:06.315Z,18.76
2022-08-24T23:54:32.837Z,18.73
2022-08-24T23:56:59.510Z,18.86
2022-08-24T23:59:27.647Z,18.78
